createdAt,value
2018-12-14T00:00:16.248Z,2.80
2018-12-14T00:02:43.859Z,2.70
2018-12-14T00:05:11.653Z,2.70
2018-12-14T00:07:39.295Z,2.80
2018-12-14T00:10:08.186Z,2.80
2018-12-14T00:12:35.895Z,2.80
2018-12-14T00:15:05.415Z,2.80
2018-12-14T00:17:33.510Z,2.90
2018-12-14T00:20:01.929Z,2.80
2018-12-14T00:22:29.615Z,2.80
2018-12-14T00:24:57.462Z,2.80
2018-12-14T00:27:26.061Z,2.90
2018-12-14T00:29:54.351Z,2.80
2018-12-14T00:32:22.165Z,2.80
2018-12-14T00:34:49.902Z,2.80
2018-12-14T00:37:17.684Z,2.80
2018-12-14T00:39:45.275Z,2.90
2018-12-14T00:42:12.923Z,2.90
2018-12-14T00:44:41.257Z,2.80
2018-12-14T00:47:08.899Z,2.80
2018-12-14T00:49:36.533Z,2.80
2018-12-14T00:52:04.226Z,2.80
2018-12-14T00:54:31.896Z,2.80
2018-12-14T00:57:00.918Z,2.80
2018-12-14T00:59:28.514Z,2.70
2018-12-14T01:01:56.121Z,2.70
2018-12-14T01:04:23.846Z,2.60
2018-12-14T01:06:51.438Z,2.60
2018-12-14T01:09:19.730Z,2.60
2018-12-14T01:11:51.470Z,2.70
2018-12-14T01:14:19.134Z,2.80
2018-12-14T01:16:46.870Z,2.80
2018-12-14T01:19:14.638Z,2.80
2018-12-14T01:21:43.093Z,2.80
2018-12-14T01:24:11.139Z,2.80
2018-12-14T01:26:39.462Z,2.80
2018-12-14T01:29:07.506Z,2.80
2018-12-14T01:31:35.167Z,2.70
2018-12-14T01:34:02.849Z,2.70
2018-12-14T01:36:30.487Z,2.70
2018-12-14T01:38:58.169Z,2.80
2018-12-14T01:41:25.820Z,2.90
2018-12-14T01:43:54.219Z,2.90
2018-12-14T01:46:22.677Z,2.80
2018-12-14T01:48:50.421Z,2.70
2018-12-14T01:51:18.042Z,2.60
2018-12-14T01:53:45.695Z,2.70
2018-12-14T01:56:13.370Z,2.80
2018-12-14T01:58:41.291Z,2.80
2018-12-14T02:01:08.893Z,2.90
2018-12-14T02:03:37.185Z,3.00
2018-12-14T02:06:04.875Z,3.00
2018-12-14T02:08:32.565Z,2.90
2018-12-14T02:11:00.150Z,2.80
2018-12-14T02:13:27.774Z,2.90
2018-12-14T02:15:55.404Z,2.90
2018-12-14T02:18:23.807Z,2.80
2018-12-14T02:20:51.471Z,2.80
2018-12-14T02:23:19.097Z,2.80
2018-12-14T02:25:47.134Z,2.70
2018-12-14T02:28:14.764Z,2.60
2018-12-14T02:30:44.191Z,2.70
2018-12-14T02:33:12.033Z,2.60
2018-12-14T02:35:39.880Z,2.60
2018-12-14T02:38:07.799Z,2.60
2018-12-14T02:40:35.526Z,2.70
2018-12-14T02:43:03.334Z,2.60
2018-12-14T02:45:31.557Z,2.60
2018-12-14T02:47:59.181Z,2.70
2018-12-14T02:50:26.862Z,2.70
2018-12-14T02:52:54.501Z,2.60
2018-12-14T02:55:23.400Z,2.60
2018-12-14T02:57:51.663Z,2.60
2018-12-14T03:00:19.328Z,2.60
2018-12-14T03:02:47.606Z,2.60
2018-12-14T03:05:15.271Z,2.60
2018-12-14T03:07:43.069Z,2.60
2018-12-14T03:10:10.696Z,2.70
2018-12-14T03:12:38.533Z,2.70
2018-12-14T03:15:06.545Z,2.70
2018-12-14T03:17:34.127Z,2.70
2018-12-14T03:20:02.233Z,2.70
2018-12-14T03:22:31.232Z,2.60
2018-12-14T03:24:58.899Z,2.70
2018-12-14T03:27:27.062Z,2.70
2018-12-14T03:29:54.738Z,2.70
2018-12-14T03:32:22.409Z,2.70
2018-12-14T03:34:50.178Z,2.80
2018-12-14T03:37:17.823Z,2.80
2018-12-14T03:39:45.685Z,2.70
2018-12-14T03:42:13.560Z,2.60
2018-12-14T03:44:41.247Z,2.60
2018-12-14T03:47:09.487Z,2.60
2018-12-14T03:49:37.706Z,2.50
2018-12-14T03:52:05.362Z,2.50
2018-12-14T03:54:33.108Z,2.40
2018-12-14T03:57:00.692Z,2.40
2018-12-14T03:59:28.314Z,2.50
2018-12-14T04:01:55.933Z,2.50
2018-12-14T04:04:25.028Z,2.50
2018-12-14T04:06:52.661Z,2.40
2018-12-14T04:09:20.499Z,2.50
2018-12-14T04:11:55.180Z,2.50
2018-12-14T04:14:22.984Z,2.60
2018-12-14T04:16:50.635Z,2.60
2018-12-14T04:19:19.218Z,2.60
2018-12-14T04:21:46.907Z,2.70
2018-12-14T04:24:15.878Z,2.80
2018-12-14T04:26:44.142Z,2.80
2018-12-14T04:29:11.806Z,2.70
2018-12-14T04:31:39.478Z,2.60
2018-12-14T04:34:07.103Z,2.60
2018-12-14T04:36:34.884Z,2.60
2018-12-14T04:39:03.994Z,2.60
2018-12-14T04:41:38.484Z,2.60
2018-12-14T04:44:06.903Z,2.50
2018-12-14T04:46:34.561Z,2.60
2018-12-14T04:49:03.151Z,2.60
2018-12-14T04:51:31.382Z,2.70
2018-12-14T04:54:00.714Z,2.60
2018-12-14T04:56:28.444Z,2.60
2018-12-14T04:58:56.157Z,2.70
2018-12-14T05:01:24.437Z,2.70
2018-12-14T05:03:52.274Z,2.80
2018-12-14T05:06:21.098Z,2.80
2018-12-14T05:08:49.328Z,2.80
2018-12-14T05:11:17.719Z,2.80
2018-12-14T05:13:46.010Z,2.80
2018-12-14T05:16:15.006Z,2.80
2018-12-14T05:18:42.569Z,2.80
2018-12-14T05:21:10.247Z,2.70
2018-12-14T05:23:37.906Z,2.70
2018-12-14T05:26:05.511Z,2.60
2018-12-14T05:28:33.207Z,2.70
2018-12-14T05:31:00.845Z,2.60
2018-12-14T05:33:29.047Z,2.50
2018-12-14T05:35:56.887Z,2.50
2018-12-14T05:38:24.547Z,2.40
2018-12-14T05:40:52.275Z,2.40
2018-12-14T05:43:19.930Z,2.40
2018-12-14T05:45:47.916Z,2.40
2018-12-14T05:48:16.241Z,2.50
2018-12-14T05:50:44.110Z,2.60
2018-12-14T05:53:11.891Z,2.70
2018-12-14T05:55:40.421Z,2.70
2018-12-14T05:58:08.083Z,2.70
2018-12-14T06:00:35.819Z,2.70
2018-12-14T06:03:03.612Z,2.60
2018-12-14T06:05:31.343Z,2.60
2018-12-14T06:07:59.107Z,2.50
2018-12-14T06:10:27.502Z,2.40
2018-12-14T06:12:55.324Z,2.40
2018-12-14T06:15:23.193Z,2.40
2018-12-14T06:17:50.941Z,2.30
2018-12-14T06:20:20.609Z,2.30
2018-12-14T06:22:48.328Z,2.40
2018-12-14T06:25:16.618Z,2.50
2018-12-14T06:27:44.546Z,2.50
2018-12-14T06:30:12.925Z,2.60
2018-12-14T06:32:41.194Z,2.50
2018-12-14T06:35:09.169Z,2.40
2018-12-14T06:37:37.133Z,2.40
2018-12-14T06:40:05.403Z,2.30
2018-12-14T06:42:33.290Z,2.30
2018-12-14T06:45:01.987Z,2.30
2018-12-14T06:47:30.583Z,2.40
2018-12-14T06:49:58.179Z,2.30
2018-12-14T06:52:26.311Z,2.30
2018-12-14T06:54:54.728Z,2.30
2018-12-14T06:57:22.494Z,2.20
2018-12-14T06:59:50.812Z,2.10
2018-12-14T07:02:18.700Z,2.10
2018-12-14T07:04:46.323Z,2.20
2018-12-14T07:07:14.711Z,2.20
2018-12-14T07:09:42.757Z,2.20
2018-12-14T07:12:10.653Z,2.40
2018-12-14T07:14:39.634Z,2.40
2018-12-14T07:17:07.588Z,2.40
2018-12-14T07:19:35.472Z,2.40
2018-12-14T07:22:04.185Z,2.40
2018-12-14T07:24:32.272Z,2.50
2018-12-14T07:27:00.239Z,2.60
2018-12-14T07:29:28.228Z,2.70
2018-12-14T07:31:55.921Z,2.60
2018-12-14T07:34:23.659Z,2.70
2018-12-14T07:36:51.599Z,2.70
2018-12-14T07:39:20.329Z,2.80
2018-12-14T07:41:48.776Z,2.70
2018-12-14T07:44:17.649Z,2.70
2018-12-14T07:46:45.386Z,2.80
2018-12-14T07:49:13.173Z,2.80
2018-12-14T07:51:47.606Z,2.80
2018-12-14T07:54:15.297Z,2.80
2018-12-14T07:56:43.754Z,2.70
2018-12-14T07:59:11.891Z,2.70
2018-12-14T08:01:40.124Z,2.70
2018-12-14T08:04:08.452Z,2.60
2018-12-14T08:06:36.168Z,2.50
2018-12-14T08:09:05.624Z,2.50
2018-12-14T08:11:33.309Z,2.50
2018-12-14T08:14:04.683Z,2.50
2018-12-14T08:16:32.483Z,2.40
2018-12-14T08:19:00.237Z,2.30
2018-12-14T08:21:27.941Z,2.30
2018-12-14T08:23:55.930Z,2.30
2018-12-14T08:26:23.654Z,2.40
2018-12-14T08:28:52.101Z,2.40
2018-12-14T08:31:19.908Z,2.40
2018-12-14T08:33:47.574Z,2.30
2018-12-14T08:36:16.089Z,2.20
2018-12-14T08:38:44.656Z,2.30
2018-12-14T08:41:12.555Z,2.30
2018-12-14T08:43:41.666Z,2.50
2018-12-14T08:46:10.085Z,2.60
2018-12-14T08:48:37.905Z,2.60
2018-12-14T08:51:05.698Z,2.60
2018-12-14T08:53:33.988Z,2.70
2018-12-14T08:56:01.968Z,2.70
2018-12-14T08:58:29.972Z,2.70
2018-12-14T09:00:57.813Z,2.60
2018-12-14T09:03:25.780Z,2.30
2018-12-14T09:05:53.445Z,2.20
2018-12-14T09:08:21.336Z,2.20
2018-12-14T09:10:49.192Z,2.30
2018-12-14T09:13:16.985Z,2.30
2018-12-14T09:15:45.639Z,2.40
2018-12-14T09:18:13.718Z,2.50
2018-12-14T09:20:41.602Z,2.40
2018-12-14T09:23:11.368Z,2.50
2018-12-14T09:25:39.271Z,2.50
2018-12-14T09:28:07.740Z,2.60
2018-12-14T09:30:35.665Z,2.60
2018-12-14T09:33:03.381Z,2.60
2018-12-14T09:35:31.162Z,2.70
2018-12-14T09:37:58.956Z,2.70
2018-12-14T09:40:27.852Z,2.80
2018-12-14T09:42:55.879Z,2.70
2018-12-14T09:45:23.711Z,2.60
2018-12-14T09:47:52.166Z,2.60
2018-12-14T09:50:20.081Z,2.70
2018-12-14T09:52:47.960Z,2.70
2018-12-14T09:55:16.018Z,2.50
2018-12-14T09:57:44.287Z,2.50
2018-12-14T10:00:12.120Z,2.60
2018-12-14T10:02:43.508Z,2.50
2018-12-14T10:05:11.377Z,2.50
2018-12-14T10:07:39.826Z,2.50
2018-12-14T10:10:09.355Z,2.40
2018-12-14T10:12:37.399Z,2.50
2018-12-14T10:15:05.442Z,2.40
2018-12-14T10:17:33.571Z,2.40
2018-12-14T10:20:02.493Z,2.60
2018-12-14T10:22:41.565Z,2.60
2018-12-14T10:25:07.381Z,2.60
2018-12-14T10:27:35.584Z,2.70
2018-12-14T10:30:03.977Z,2.70
2018-12-14T10:32:32.062Z,2.70
2018-12-14T10:35:00.292Z,2.70
2018-12-14T10:37:28.528Z,2.70
2018-12-14T10:39:56.201Z,2.90
2018-12-14T10:42:24.569Z,2.80
2018-12-14T10:44:52.275Z,2.80
2018-12-14T10:47:20.558Z,2.80
2018-12-14T10:49:48.793Z,2.90
2018-12-14T10:52:16.578Z,2.90
2018-12-14T10:54:44.665Z,2.90
2018-12-14T10:57:16.140Z,2.80
2018-12-14T10:59:42.893Z,2.80
2018-12-14T11:02:10.891Z,2.80
2018-12-14T11:04:38.678Z,2.80
2018-12-14T11:07:06.696Z,2.50
2018-12-14T11:09:34.564Z,2.40
2018-12-14T11:12:02.514Z,2.40
2018-12-14T11:14:30.258Z,2.40
2018-12-14T11:16:58.949Z,2.50
2018-12-14T11:19:26.726Z,2.60
2018-12-14T11:21:54.386Z,2.60
2018-12-14T11:24:22.145Z,2.50
2018-12-14T11:26:50.699Z,2.50
2018-12-14T11:29:19.277Z,2.50
2018-12-14T11:31:47.292Z,2.60
2018-12-14T11:34:15.179Z,2.70
2018-12-14T11:36:43.478Z,2.80
2018-12-14T11:39:11.907Z,3.00
2018-12-14T11:41:39.998Z,3.10
2018-12-14T11:44:07.762Z,3.10
2018-12-14T11:46:35.475Z,3.20
2018-12-14T11:49:03.200Z,3.20
2018-12-14T11:51:30.897Z,3.20
2018-12-14T11:53:58.652Z,3.10
2018-12-14T11:56:27.570Z,2.90
2018-12-14T11:58:56.893Z,2.70
2018-12-14T12:01:24.733Z,2.60
2018-12-14T12:03:52.749Z,2.70
2018-12-14T12:06:20.884Z,2.70
2018-12-14T12:08:48.835Z,2.70
2018-12-14T12:11:16.607Z,2.80
2018-12-14T12:13:44.360Z,2.60
2018-12-14T12:16:12.647Z,2.50
2018-12-14T12:18:40.362Z,2.50
2018-12-14T12:21:08.259Z,2.40
2018-12-14T12:23:36.182Z,2.40
2018-12-14T12:26:04.035Z,2.40
2018-12-14T12:28:32.044Z,2.60
2018-12-14T12:30:59.808Z,2.80
2018-12-14T12:33:27.627Z,3.00
2018-12-14T12:35:55.489Z,3.00
2018-12-14T12:38:24.141Z,3.00
2018-12-14T12:40:52.152Z,2.80
2018-12-14T12:43:20.079Z,2.60
2018-12-14T12:45:48.000Z,2.60
2018-12-14T12:48:15.812Z,2.80
2018-12-14T12:50:43.521Z,2.80
2018-12-14T12:53:13.283Z,2.60
2018-12-14T12:55:41.175Z,2.40
2018-12-14T12:58:09.643Z,2.40
2018-12-14T13:00:37.425Z,2.40
2018-12-14T13:03:05.459Z,2.40
2018-12-14T13:05:35.066Z,2.30
2018-12-14T13:08:10.483Z,2.40
2018-12-14T13:10:39.167Z,2.40
2018-12-14T13:13:07.048Z,2.50
2018-12-14T13:15:35.001Z,2.70
2018-12-14T13:18:03.008Z,2.90
2018-12-14T13:20:30.791Z,2.80
2018-12-14T13:22:59.074Z,2.80
2018-12-14T13:25:26.779Z,2.90
2018-12-14T13:27:54.546Z,2.80
2018-12-14T13:30:22.251Z,2.80
2018-12-14T13:32:50.078Z,2.70
2018-12-14T13:35:17.850Z,2.80
2018-12-14T13:37:46.022Z,2.90
2018-12-14T13:40:14.508Z,2.70
2018-12-14T13:42:42.651Z,2.50
2018-12-14T13:45:10.792Z,2.40
2018-12-14T13:47:38.708Z,2.50
2018-12-14T13:50:06.767Z,2.50
2018-12-14T13:52:34.594Z,2.50
2018-12-14T13:55:02.458Z,2.50
2018-12-14T13:57:30.424Z,2.40
2018-12-14T13:59:58.194Z,2.30
2018-12-14T14:02:26.108Z,2.30
2018-12-14T14:04:53.944Z,2.40
2018-12-14T14:07:21.808Z,2.30
2018-12-14T14:09:49.615Z,2.30
2018-12-14T14:12:17.793Z,2.30
2018-12-14T14:14:45.818Z,2.30
2018-12-14T14:17:13.624Z,2.40
2018-12-14T14:19:41.882Z,2.30
2018-12-14T14:22:10.369Z,2.20
2018-12-14T14:24:38.136Z,2.20
2018-12-14T14:27:10.200Z,2.20
2018-12-14T14:29:38.037Z,2.40
2018-12-14T14:32:05.795Z,2.30
2018-12-14T14:34:33.578Z,2.30
2018-12-14T14:37:01.734Z,2.40
2018-12-14T14:39:29.482Z,2.50
2018-12-14T14:41:57.340Z,2.50
2018-12-14T14:44:25.131Z,2.50
2018-12-14T14:46:52.903Z,2.50
2018-12-14T14:49:20.989Z,2.60
2018-12-14T14:51:49.226Z,2.60
2018-12-14T14:54:17.005Z,2.70
2018-12-14T14:56:44.978Z,2.70
2018-12-14T14:59:13.040Z,2.50
2018-12-14T15:01:41.202Z,2.60
2018-12-14T15:04:09.970Z,2.50
2018-12-14T15:06:37.782Z,2.40
2018-12-14T15:09:07.788Z,2.40
2018-12-14T15:11:36.332Z,2.50
2018-12-14T15:14:04.346Z,2.60
2018-12-14T15:16:32.643Z,2.60
2018-12-14T15:19:00.469Z,2.50
2018-12-14T15:21:28.458Z,2.40
2018-12-14T15:23:56.685Z,2.40
2018-12-14T15:26:25.499Z,2.40
2018-12-14T15:28:54.062Z,2.40
2018-12-14T15:31:22.683Z,2.50
2018-12-14T15:33:50.552Z,2.40
2018-12-14T15:36:19.361Z,2.30
2018-12-14T15:38:47.784Z,2.20
2018-12-14T15:41:16.646Z,2.10
2018-12-14T15:43:44.659Z,2.20
2018-12-14T15:46:13.415Z,2.20
2018-12-14T15:48:41.143Z,2.40
2018-12-14T15:51:08.966Z,2.30
2018-12-14T15:53:38.084Z,2.30
2018-12-14T15:56:07.630Z,2.20
2018-12-14T15:58:36.671Z,2.20
2018-12-14T16:01:05.003Z,2.20
2018-12-14T16:03:33.020Z,2.30
2018-12-14T16:06:01.965Z,2.30
2018-12-14T16:08:29.797Z,2.40
2018-12-14T16:10:58.012Z,2.30
2018-12-14T16:13:26.472Z,2.30
2018-12-14T16:15:54.797Z,2.30
2018-12-14T16:18:23.716Z,2.30
2018-12-14T16:20:51.884Z,2.40
2018-12-14T16:23:20.103Z,2.40
2018-12-14T16:25:48.453Z,2.50
2018-12-14T16:28:17.143Z,2.60
2018-12-14T16:30:45.232Z,2.40
2018-12-14T16:33:13.378Z,2.40
2018-12-14T16:35:42.181Z,2.50
2018-12-14T16:38:10.523Z,2.60
2018-12-14T16:40:39.159Z,2.60
2018-12-14T16:43:07.327Z,2.60
2018-12-14T16:45:35.485Z,2.70
2018-12-14T16:48:04.360Z,2.70
2018-12-14T16:50:33.325Z,2.70
2018-12-14T16:53:01.369Z,2.70
2018-12-14T16:55:29.237Z,2.60
2018-12-14T16:57:57.428Z,2.50
2018-12-14T17:00:25.624Z,2.50
2018-12-14T17:02:54.088Z,2.40
2018-12-14T17:05:22.005Z,2.40
2018-12-14T17:07:49.691Z,2.30
2018-12-14T17:12:44.764Z,2.30
2018-12-14T17:15:12.760Z,2.30
2018-12-14T17:17:40.715Z,2.30
2018-12-14T17:20:08.941Z,2.40
2018-12-14T17:22:37.970Z,2.40
2018-12-14T17:25:06.854Z,2.40
2018-12-14T17:27:35.902Z,2.40
2018-12-14T17:30:04.802Z,2.30
2018-12-14T17:32:32.481Z,2.40
2018-12-14T17:35:00.309Z,2.50
2018-12-14T17:37:28.145Z,2.50
2018-12-14T17:39:56.508Z,2.50
2018-12-14T17:42:24.530Z,2.50
2018-12-14T17:44:52.362Z,2.50
2018-12-14T17:47:21.714Z,2.50
2018-12-14T17:49:49.568Z,2.50
2018-12-14T17:52:17.633Z,2.60
2018-12-14T17:54:45.302Z,2.60
2018-12-14T17:57:13.292Z,2.50
2018-12-14T17:59:41.149Z,2.40
2018-12-14T18:02:09.033Z,2.40
2018-12-14T18:04:36.754Z,2.30
2018-12-14T18:07:05.261Z,2.40
2018-12-14T18:09:34.129Z,2.40
2018-12-14T18:12:02.243Z,2.40
2018-12-14T18:14:30.286Z,2.30
2018-12-14T18:16:58.263Z,2.40
2018-12-14T18:19:26.491Z,2.40
2018-12-14T18:21:54.913Z,2.50
2018-12-14T18:24:22.613Z,2.40
2018-12-14T18:26:50.594Z,2.30
2018-12-14T18:29:18.587Z,2.30
2018-12-14T18:31:46.437Z,2.40
2018-12-14T18:34:14.194Z,2.30
2018-12-14T18:36:41.993Z,2.30
2018-12-14T18:39:09.765Z,2.30
2018-12-14T18:41:37.585Z,2.40
2018-12-14T18:44:06.075Z,2.50
2018-12-14T18:46:34.501Z,2.40
2018-12-14T18:49:02.374Z,2.40
2018-12-14T18:51:31.288Z,2.50
2018-12-14T18:53:59.698Z,2.60
2018-12-14T18:56:28.511Z,2.60
2018-12-14T18:58:57.233Z,2.60
2018-12-14T19:01:25.403Z,2.60
2018-12-14T19:03:55.668Z,2.50
2018-12-14T19:06:23.720Z,2.40
2018-12-14T19:08:52.169Z,2.30
2018-12-14T19:11:21.123Z,2.20
2018-12-14T19:13:49.327Z,2.20
2018-12-14T19:16:17.109Z,2.20
2018-12-14T19:18:45.019Z,2.30
2018-12-14T19:21:13.216Z,2.30
2018-12-14T19:23:41.419Z,2.30
2018-12-14T19:26:09.446Z,2.30
2018-12-14T19:28:37.393Z,2.40
2018-12-14T19:31:05.550Z,2.40
2018-12-14T19:33:40.499Z,2.40
2018-12-14T19:36:08.491Z,2.40
2018-12-14T19:38:36.640Z,2.40
2018-12-14T19:41:04.916Z,2.40
2018-12-14T19:43:32.766Z,2.50
2018-12-14T19:46:06.264Z,2.30
2018-12-14T19:48:30.719Z,2.20
2018-12-14T19:50:58.643Z,2.10
2018-12-14T19:53:27.010Z,2.00
2018-12-14T19:55:55.582Z,2.10
2018-12-14T19:58:24.103Z,2.20
2018-12-14T20:00:51.887Z,2.30
2018-12-14T20:03:20.507Z,2.20
2018-12-14T20:05:48.544Z,2.20
2018-12-14T20:08:16.335Z,2.20
2018-12-14T20:10:44.287Z,2.20
2018-12-14T20:30:34.737Z,2.10
2018-12-14T20:33:03.005Z,2.10
2018-12-14T20:35:31.543Z,2.30
2018-12-14T20:37:59.913Z,2.30
2018-12-14T20:40:27.828Z,2.20
2018-12-14T20:42:55.549Z,2.30
2018-12-14T20:45:23.287Z,2.20
2018-12-14T20:47:51.264Z,2.30
2018-12-14T20:50:19.204Z,2.20
2018-12-14T20:55:20.771Z,2.40
2018-12-14T20:57:48.627Z,2.30
2018-12-14T21:00:16.476Z,2.30
2018-12-14T21:02:44.302Z,2.40
2018-12-14T21:05:12.756Z,2.40
2018-12-14T21:07:40.685Z,2.40
2018-12-14T21:10:08.728Z,2.40
2018-12-14T21:12:36.727Z,2.30
2018-12-14T21:15:06.443Z,2.20
2018-12-14T21:17:34.432Z,2.10
2018-12-14T21:20:02.322Z,2.10
2018-12-14T21:22:30.134Z,2.10
2018-12-14T21:24:58.105Z,2.00
2018-12-14T21:27:25.924Z,2.10
2018-12-14T21:29:53.728Z,2.10
2018-12-14T21:32:21.571Z,2.20
2018-12-14T21:34:49.215Z,2.20
2018-12-14T21:37:17.401Z,2.30
2018-12-14T21:39:45.323Z,2.20
2018-12-14T21:42:13.563Z,2.20
2018-12-14T21:44:41.590Z,2.10
2018-12-14T21:47:09.521Z,2.10
2018-12-14T21:49:37.536Z,2.10
2018-12-14T21:52:05.459Z,2.00
2018-12-14T21:54:33.291Z,1.90
2018-12-14T21:59:35.276Z,2.00
2018-12-14T22:02:03.093Z,2.10
2018-12-14T22:04:31.573Z,2.10
2018-12-14T22:06:59.468Z,2.10
2018-12-14T22:09:27.264Z,2.10
2018-12-14T22:11:55.078Z,2.00
2018-12-14T22:14:23.114Z,2.10
2018-12-14T22:16:51.385Z,2.10
2018-12-14T22:19:19.563Z,2.20
2018-12-14T22:21:47.212Z,2.10
2018-12-14T22:24:15.217Z,2.10
2018-12-14T22:26:42.844Z,2.00
2018-12-14T22:29:10.689Z,1.90
2018-12-14T22:31:38.508Z,1.90
2018-12-14T22:34:06.861Z,1.90
2018-12-14T22:36:34.450Z,1.90
2018-12-14T22:39:02.805Z,2.00
2018-12-14T22:41:31.221Z,2.10
2018-12-14T22:43:59.707Z,2.10
2018-12-14T22:46:27.607Z,2.10
2018-12-14T22:48:55.306Z,2.10
2018-12-14T22:51:23.869Z,2.10
2018-12-14T22:53:51.635Z,2.20
2018-12-14T22:56:19.303Z,2.20
2018-12-14T22:58:47.327Z,2.30
2018-12-14T23:01:14.958Z,2.30
2018-12-14T23:03:42.557Z,2.40
2018-12-14T23:06:10.629Z,2.40
2018-12-14T23:08:38.400Z,2.20
2018-12-14T23:11:06.873Z,2.20
2018-12-14T23:13:34.831Z,2.20
2018-12-14T23:16:02.704Z,2.20
2018-12-14T23:18:30.565Z,2.20
2018-12-14T23:20:58.526Z,2.10
2018-12-14T23:23:26.404Z,2.10
2018-12-14T23:25:54.074Z,2.00
2018-12-14T23:28:22.140Z,2.10
2018-12-14T23:30:49.751Z,2.20
2018-12-14T23:33:17.481Z,2.10
2018-12-14T23:35:45.184Z,2.10
2018-12-14T23:38:15.939Z,2.10
2018-12-14T23:40:43.815Z,2.20
2018-12-14T23:43:11.963Z,2.20
2018-12-14T23:45:39.986Z,2.10
2018-12-14T23:48:08.093Z,2.10
2018-12-14T23:50:35.774Z,2.10
2018-12-14T23:53:03.644Z,2.20
2018-12-14T23:55:32.031Z,2.20
2018-12-14T23:58:00.290Z,2.30
